createdAt,value
2018-04-13T00:00:38.364Z,4.80
2018-04-13T00:03:06.410Z,4.70
2018-04-13T00:05:34.456Z,5.03
2018-04-13T00:08:02.494Z,4.90
2018-04-13T00:10:30.546Z,5.07
2018-04-13T00:12:58.605Z,4.47
2018-04-13T00:15:26.654Z,4.70
2018-04-13T00:17:54.719Z,5.37
2018-04-13T00:20:22.758Z,5.50
2018-04-13T00:22:50.805Z,5.13
2018-04-13T00:25:18.851Z,4.97
2018-04-13T00:27:46.909Z,4.50
2018-04-13T00:30:14.959Z,4.53
2018-04-13T00:32:43.761Z,5.70
2018-04-13T00:35:11.817Z,4.53
2018-04-13T00:37:39.866Z,5.20
2018-04-13T00:40:07.905Z,5.00
2018-04-13T00:42:35.994Z,5.20
2018-04-13T00:45:04.051Z,5.30
2018-04-13T00:47:32.089Z,5.47
2018-04-13T00:50:00.131Z,5.67
2018-04-13T00:52:28.173Z,5.10
2018-04-13T00:54:56.234Z,5.70
2018-04-13T00:57:24.272Z,5.53
2018-04-13T00:59:53.091Z,4.77
2018-04-13T01:02:21.125Z,5.37
2018-04-13T01:04:49.941Z,5.40
2018-04-13T01:07:17.994Z,5.60
2018-04-13T01:09:46.062Z,6.13
2018-04-13T01:12:14.870Z,6.00
2018-04-13T01:14:42.937Z,5.80
2018-04-13T01:17:10.977Z,5.10
2018-04-13T01:19:39.021Z,5.13
2018-04-13T01:22:07.070Z,4.77
2018-04-13T01:24:35.110Z,5.07
2018-04-13T01:27:03.150Z,5.10
2018-04-13T01:29:31.193Z,5.27
2018-04-13T01:31:59.234Z,5.27
2018-04-13T01:34:27.282Z,5.33
2018-04-13T01:36:55.386Z,6.00
2018-04-13T01:39:23.370Z,4.80
2018-04-13T01:41:51.434Z,5.50
2018-04-13T01:44:19.470Z,5.70
2018-04-13T01:46:48.281Z,5.80
2018-04-13T01:49:16.350Z,5.90
2018-04-13T01:51:44.414Z,5.20
2018-04-13T01:54:12.437Z,5.30
2018-04-13T01:56:40.497Z,5.47
2018-04-13T01:59:08.566Z,5.90
2018-04-13T02:01:36.590Z,5.53
2018-04-13T02:04:04.652Z,5.70
2018-04-13T02:06:32.689Z,5.40
2018-04-13T02:11:54.122Z,5.30
2018-04-13T02:14:22.161Z,4.93
2018-04-13T02:16:50.966Z,5.43
2018-04-13T02:19:19.017Z,4.57
2018-04-13T02:21:47.843Z,4.10
2018-04-13T02:24:15.909Z,4.87
2018-04-13T02:26:43.966Z,4.77
2018-04-13T02:29:12.001Z,5.00
2018-04-13T02:31:40.049Z,5.07
2018-04-13T02:34:08.100Z,5.53
2018-04-13T02:36:36.137Z,5.57
2018-04-13T02:39:05.874Z,4.27
2018-04-13T02:41:33.930Z,5.10
2018-04-13T02:44:01.974Z,5.60
2018-04-13T02:46:30.018Z,4.20
2018-04-13T02:48:58.071Z,4.40
2018-04-13T02:51:26.111Z,4.17
2018-04-13T02:53:54.913Z,4.97
2018-04-13T02:56:23.002Z,4.50
2018-04-13T02:58:51.040Z,5.10
2018-04-13T03:01:19.081Z,4.80
2018-04-13T03:03:47.133Z,6.03
2018-04-13T03:06:15.958Z,4.73
2018-04-13T03:08:44.002Z,4.60
2018-04-13T03:11:12.062Z,3.70
2018-04-13T03:13:40.902Z,5.00
2018-04-13T03:16:09.706Z,4.57
2018-04-13T03:18:37.765Z,4.40
2018-04-13T03:21:06.578Z,4.80
2018-04-13T03:23:34.622Z,4.37
2018-04-13T03:26:03.437Z,4.57
2018-04-13T03:28:31.475Z,4.80
2018-04-13T03:30:59.529Z,4.13
2018-04-13T03:33:27.573Z,4.47
2018-04-13T03:35:55.666Z,4.00
2018-04-13T03:38:23.725Z,3.60
2018-04-13T03:40:51.794Z,4.10
2018-04-13T03:43:19.845Z,4.50
2018-04-13T03:45:47.966Z,4.50
2018-04-13T03:48:16.011Z,4.70
2018-04-13T03:50:44.048Z,4.70
2018-04-13T03:53:12.093Z,4.23
2018-04-13T03:55:40.149Z,3.27
2018-04-13T03:58:08.186Z,2.77
2018-04-13T04:00:36.247Z,3.23
2018-04-13T04:03:04.315Z,3.20
2018-04-13T04:05:32.349Z,3.20
2018-04-13T04:08:00.409Z,3.10
2018-04-13T04:10:28.445Z,3.30
2018-04-13T04:12:56.498Z,2.90
2018-04-13T04:15:24.550Z,3.10
2018-04-13T04:17:53.363Z,4.10
2018-04-13T04:20:34.048Z,3.53
2018-04-13T04:23:13.854Z,3.33
2018-04-13T04:28:40.406Z,3.13
2018-04-13T04:31:08.461Z,3.50
2018-04-13T04:33:36.507Z,3.27
2018-04-13T04:36:04.574Z,3.77
2018-04-13T04:38:32.635Z,3.63
2018-04-13T04:41:00.669Z,3.33
2018-04-13T04:43:28.716Z,2.90
2018-04-13T04:45:57.189Z,3.07
2018-04-13T04:48:25.309Z,3.00
2018-04-13T04:50:53.349Z,3.20
2018-04-13T04:53:21.402Z,3.40
2018-04-13T04:55:49.448Z,3.23
2018-04-13T04:58:17.538Z,2.63
2018-04-13T05:00:45.594Z,3.60
2018-04-13T05:03:13.630Z,3.30
2018-04-13T05:05:42.442Z,2.70
2018-04-13T05:08:10.502Z,2.80
2018-04-13T05:10:39.305Z,3.20
2018-04-13T05:13:07.352Z,3.43
2018-04-13T05:15:35.394Z,2.97
2018-04-13T05:18:03.436Z,3.50
2018-04-13T05:20:31.475Z,2.90
2018-04-13T05:22:59.525Z,3.90
2018-04-13T05:25:27.565Z,3.30
2018-04-13T05:27:55.616Z,2.80
2018-04-13T05:30:23.702Z,3.37
2018-04-13T05:32:52.510Z,3.67
2018-04-13T05:35:20.612Z,3.10
2018-04-13T05:37:48.614Z,3.23
2018-04-13T05:40:16.649Z,2.70
2018-04-13T05:42:45.453Z,2.60
2018-04-13T05:45:13.514Z,2.63
2018-04-13T05:47:41.580Z,2.50
2018-04-13T05:50:09.597Z,2.60
2018-04-13T05:52:37.658Z,2.20
2018-04-13T05:55:05.697Z,2.27
2018-04-13T05:57:34.549Z,2.50
2018-04-13T06:00:02.610Z,2.30
2018-04-13T06:02:30.706Z,1.87
2018-04-13T06:04:58.752Z,2.30
2018-04-13T06:07:26.801Z,2.47
2018-04-13T06:09:54.838Z,2.23
2018-04-13T06:12:22.910Z,2.43
2018-04-13T06:14:50.946Z,2.60
2018-04-13T06:17:19.006Z,2.73
2018-04-13T06:19:47.085Z,3.50
2018-04-13T06:22:15.146Z,3.60
2018-04-13T06:24:43.197Z,3.50
2018-04-13T06:27:11.283Z,3.43
2018-04-13T06:29:39.395Z,3.70
2018-04-13T06:32:08.173Z,2.70
2018-04-13T06:34:36.245Z,2.67
2018-04-13T06:37:04.322Z,3.03
2018-04-13T06:39:32.392Z,3.50
2018-04-13T06:42:01.221Z,2.63
2018-04-13T06:44:30.069Z,2.63
2018-04-13T06:46:58.116Z,2.97
2018-04-13T06:49:26.199Z,3.30
2018-04-13T06:51:54.246Z,3.50
2018-04-13T06:54:22.338Z,2.97
2018-04-13T06:56:50.434Z,2.20
2018-04-13T06:59:19.257Z,2.70
2018-04-13T07:01:47.341Z,3.37
2018-04-13T07:04:16.202Z,3.73
2018-04-13T07:06:44.262Z,2.67
2018-04-13T07:09:12.334Z,2.57
2018-04-13T07:11:44.298Z,2.73
2018-04-13T07:14:13.253Z,2.73
2018-04-13T07:16:41.325Z,3.13
2018-04-13T07:19:09.377Z,3.17
2018-04-13T07:21:38.218Z,3.40
2018-04-13T07:24:06.289Z,3.40
2018-04-13T07:26:34.388Z,3.33
2018-04-13T07:29:02.453Z,3.27
2018-04-13T07:31:30.526Z,2.90
2018-04-13T07:33:58.630Z,3.13
2018-04-13T07:36:26.701Z,3.00
2018-04-13T07:38:55.545Z,3.70
2018-04-13T07:41:23.626Z,3.77
2018-04-13T07:43:51.682Z,3.70
2018-04-13T07:46:19.770Z,3.30
2018-04-13T07:48:47.854Z,4.23
2018-04-13T07:51:15.917Z,4.30
2018-04-13T07:53:43.968Z,3.80
2018-04-13T07:56:12.039Z,3.63
2018-04-13T07:58:40.081Z,4.37
2018-04-13T08:01:08.150Z,4.07
2018-04-13T08:03:37.007Z,4.83
2018-04-13T08:06:05.050Z,4.37
2018-04-13T08:08:33.117Z,3.87
2018-04-13T08:11:01.174Z,3.83
2018-04-13T08:13:29.246Z,2.97
2018-04-13T08:15:57.310Z,4.17
2018-04-13T08:18:25.370Z,4.20
2018-04-13T08:20:53.438Z,5.07
2018-04-13T08:23:21.546Z,4.00
2018-04-13T08:25:49.590Z,5.37
2018-04-13T08:28:17.659Z,4.90
2018-04-13T08:30:45.734Z,5.13
2018-04-13T08:33:13.827Z,6.63
2018-04-13T08:35:41.910Z,6.77
2018-04-13T08:38:10.072Z,6.23
2018-04-13T08:40:38.166Z,7.40
2018-04-13T08:43:06.252Z,7.83
2018-04-13T08:45:34.351Z,8.40
2018-04-13T08:48:02.445Z,8.20
2018-04-13T08:50:31.274Z,9.23
2018-04-13T08:52:59.345Z,9.63
2018-04-13T08:55:27.430Z,9.57
2018-04-13T08:57:55.525Z,8.07
2018-04-13T09:00:23.555Z,8.20
2018-04-13T09:02:51.633Z,9.57
2018-04-13T09:05:19.681Z,9.23
2018-04-13T09:07:47.751Z,11.67
2018-04-13T09:10:15.826Z,13.30
2018-04-13T09:12:43.890Z,15.13
2018-04-13T09:15:11.974Z,13.77
2018-04-13T09:17:40.066Z,13.40
2018-04-13T09:20:08.145Z,10.53
2018-04-13T09:22:36.222Z,13.03
2018-04-13T09:25:04.303Z,15.23
2018-04-13T09:27:32.349Z,18.23
2018-04-13T09:30:00.431Z,14.57
2018-04-13T09:32:28.495Z,16.83
2018-04-13T09:34:56.558Z,19.57
2018-04-13T09:37:24.644Z,19.20
2018-04-13T09:39:52.698Z,21.20
2018-04-13T09:42:20.794Z,20.30
2018-04-13T09:44:48.874Z,21.13
2018-04-13T09:47:16.958Z,22.23
2018-04-13T09:49:45.022Z,21.60
2018-04-13T09:52:13.075Z,24.17
2018-04-13T09:54:41.176Z,22.80
2018-04-13T09:57:09.249Z,25.03
2018-04-13T09:59:37.299Z,22.77
2018-04-13T10:02:05.390Z,21.00
2018-04-13T10:04:39.169Z,19.77
2018-04-13T10:07:07.239Z,21.17
2018-04-13T10:09:35.312Z,20.73
2018-04-13T10:12:03.394Z,17.10
2018-04-13T10:14:31.529Z,19.60
2018-04-13T10:16:59.589Z,22.07
2018-04-13T10:19:27.658Z,21.27
2018-04-13T10:21:55.725Z,21.90
2018-04-13T10:24:23.811Z,21.30
2018-04-13T10:26:51.921Z,22.27
2018-04-13T10:29:19.970Z,21.17
2018-04-13T10:31:48.046Z,23.10
2018-04-13T10:34:16.133Z,20.97
2018-04-13T10:36:44.219Z,18.77
2018-04-13T10:39:12.299Z,21.47
2018-04-13T10:41:40.373Z,23.20
2018-04-13T10:44:09.218Z,24.00
2018-04-13T10:46:38.003Z,23.37
2018-04-13T10:49:06.057Z,22.20
2018-04-13T10:51:34.133Z,26.20
2018-04-13T10:54:02.210Z,27.10
2018-04-13T10:56:30.294Z,23.40
2018-04-13T10:58:58.399Z,26.53
2018-04-13T11:01:26.485Z,27.23
2018-04-13T11:03:54.549Z,28.10
2018-04-13T11:06:23.386Z,27.40
2018-04-13T11:08:52.226Z,25.17
2018-04-13T11:11:20.338Z,33.37
2018-04-13T11:13:48.430Z,30.90
2018-04-13T11:16:16.502Z,29.40
2018-04-13T11:18:44.577Z,32.93
2018-04-13T11:21:12.645Z,34.00
2018-04-13T11:23:40.689Z,22.47
2018-04-13T11:26:08.769Z,28.93
2018-04-13T11:28:36.855Z,27.83
2018-04-13T11:31:04.953Z,27.00
2018-04-13T11:33:33.103Z,30.43
2018-04-13T11:36:01.086Z,30.50
2018-04-13T11:38:29.170Z,29.17
2018-04-13T11:40:57.308Z,29.33
2018-04-13T11:43:25.385Z,26.43
2018-04-13T11:45:54.238Z,33.50
2018-04-13T11:48:22.329Z,31.87
2018-04-13T11:50:50.386Z,32.97
2018-04-13T11:53:18.473Z,32.00
2018-04-13T11:55:46.555Z,31.60
2018-04-13T11:58:14.612Z,33.60
2018-04-13T12:00:42.685Z,34.43
2018-04-13T12:03:10.769Z,28.83
2018-04-13T12:05:38.854Z,24.97
2018-04-13T12:08:06.918Z,19.00
2018-04-13T12:10:34.982Z,22.00
2018-04-13T12:13:03.046Z,27.53
2018-04-13T12:15:31.118Z,25.07
2018-04-13T12:18:00.714Z,21.97
2018-04-13T12:20:28.875Z,20.60
2018-04-13T12:22:57.834Z,23.03
2018-04-13T12:25:25.914Z,17.27
2018-04-13T12:27:53.986Z,18.43
2018-04-13T12:30:22.061Z,19.57
2018-04-13T12:32:50.162Z,18.07
2018-04-13T12:35:18.243Z,18.93
2018-04-13T12:37:46.306Z,16.43
2018-04-13T12:40:14.421Z,14.23
2018-04-13T12:42:42.501Z,15.53
2018-04-13T12:45:10.553Z,15.70
2018-04-13T12:47:38.621Z,18.70
2018-04-13T12:50:06.701Z,19.77
2018-04-13T12:52:34.785Z,18.50
2018-04-13T12:55:04.041Z,19.43
2018-04-13T12:57:31.853Z,20.10
2018-04-13T13:00:00.693Z,18.70
2018-04-13T13:02:28.765Z,19.07
2018-04-13T13:04:56.881Z,13.03
2018-04-13T13:07:24.941Z,11.23
2018-04-13T13:09:53.022Z,11.57
2018-04-13T13:12:21.081Z,7.87
2018-04-13T13:14:49.130Z,6.90
2018-04-13T13:17:17.218Z,6.33
2018-04-13T13:19:46.045Z,6.47
2018-04-13T13:22:14.879Z,5.03
2018-04-13T13:24:42.961Z,4.97
2018-04-13T13:27:11.044Z,4.67
2018-04-13T13:29:39.098Z,5.47
2018-04-13T13:32:07.188Z,3.70
2018-04-13T13:34:35.240Z,5.00
2018-04-13T13:37:03.302Z,4.60
2018-04-13T13:39:37.178Z,5.37
2018-04-13T13:42:06.013Z,5.37
2018-04-13T13:44:34.090Z,6.07
2018-04-13T13:47:02.165Z,6.57
2018-04-13T13:49:32.222Z,7.07
2018-04-13T13:52:00.302Z,6.87
2018-04-13T13:54:29.138Z,7.80
2018-04-13T13:56:57.218Z,8.53
2018-04-13T13:59:25.286Z,8.03
2018-04-13T14:01:53.367Z,7.00
2018-04-13T14:04:22.201Z,7.57
2018-04-13T14:06:50.262Z,6.67
2018-04-13T14:09:18.336Z,8.00
2018-04-13T14:11:46.390Z,7.37
2018-04-13T14:14:14.450Z,8.53
2018-04-13T14:16:42.530Z,8.57
2018-04-13T14:19:10.606Z,9.93
2018-04-13T14:21:38.677Z,9.00
2018-04-13T14:24:06.854Z,10.00
2018-04-13T14:26:34.918Z,8.93
2018-04-13T14:29:02.967Z,8.87
2018-04-13T14:31:31.041Z,8.17
2018-04-13T14:33:59.114Z,8.83
2018-04-13T14:36:27.203Z,11.07
2018-04-13T14:38:55.286Z,10.07
2018-04-13T14:41:23.369Z,14.00
2018-04-13T14:43:51.430Z,14.13
2018-04-13T14:46:19.518Z,14.27
2018-04-13T14:48:47.577Z,13.83
2018-04-13T14:51:15.657Z,11.90
2018-04-13T14:53:43.772Z,13.40
2018-04-13T14:56:11.830Z,13.90
2018-04-13T14:58:39.918Z,13.80
2018-04-13T15:01:08.026Z,13.90
2018-04-13T15:03:36.106Z,14.73
2018-04-13T15:06:04.178Z,11.47
2018-04-13T15:08:32.270Z,9.50
2018-04-13T15:11:00.339Z,11.07
2018-04-13T15:13:28.402Z,9.37
2018-04-13T15:15:56.498Z,9.37
2018-04-13T15:18:25.350Z,9.83
2018-04-13T15:20:53.405Z,9.77
2018-04-13T15:23:21.494Z,8.70
2018-04-13T15:25:49.569Z,6.93
2018-04-13T15:28:17.679Z,7.17
2018-04-13T15:30:45.715Z,7.37
2018-04-13T15:33:13.790Z,7.27
2018-04-13T15:35:42.629Z,6.60
2018-04-13T15:38:10.709Z,5.67
2018-04-13T15:40:38.774Z,5.73
2018-04-13T15:43:07.606Z,4.50
2018-04-13T15:45:35.682Z,5.20
2018-04-13T15:48:03.754Z,6.10
2018-04-13T15:50:31.827Z,5.73
2018-04-13T15:52:59.902Z,5.23
2018-04-13T15:55:27.938Z,5.33
2018-04-13T15:57:55.993Z,5.07
2018-04-13T16:00:24.124Z,5.57
2018-04-13T16:02:52.942Z,5.83
2018-04-13T16:05:21.778Z,5.00
2018-04-13T16:07:49.833Z,5.87
2018-04-13T16:10:17.902Z,6.20
2018-04-13T16:12:45.959Z,4.13
2018-04-13T16:15:14.056Z,6.33
2018-04-13T16:17:42.105Z,5.33
2018-04-13T16:20:10.170Z,5.93
2018-04-13T16:22:38.265Z,6.20
2018-04-13T16:25:06.343Z,7.20
2018-04-13T16:27:34.418Z,8.20
2018-04-13T16:30:02.514Z,7.30
2018-04-13T16:32:30.582Z,8.30
2018-04-13T16:34:58.667Z,9.03
2018-04-13T16:37:26.753Z,9.00
2018-04-13T16:39:54.821Z,7.33
2018-04-13T16:42:22.925Z,8.40
2018-04-13T16:44:51.022Z,9.77
2018-04-13T16:47:19.097Z,9.80
2018-04-13T16:49:47.182Z,9.30
2018-04-13T16:52:15.269Z,10.37
2018-04-13T16:54:43.338Z,9.40
2018-04-13T16:57:11.411Z,9.93
2018-04-13T16:59:39.503Z,9.33
2018-04-13T17:02:07.562Z,9.27
2018-04-13T17:04:35.665Z,9.90
2018-04-13T17:07:03.758Z,10.13
2018-04-13T17:09:32.032Z,9.83
2018-04-13T17:12:00.171Z,9.67
2018-04-13T17:14:28.253Z,7.67
2018-04-13T17:16:56.325Z,8.00
2018-04-13T17:19:24.403Z,9.33
2018-04-13T17:21:52.837Z,9.90
2018-04-13T17:24:20.928Z,9.23
2018-04-13T17:26:49.006Z,7.50
2018-04-13T17:29:17.110Z,11.23
2018-04-13T17:31:45.176Z,9.27
2018-04-13T17:34:13.247Z,10.97
2018-04-13T17:36:41.314Z,11.60
2018-04-13T17:39:09.397Z,11.53
2018-04-13T17:41:38.213Z,11.30
2018-04-13T17:44:06.318Z,11.67
2018-04-13T17:46:35.145Z,11.33
2018-04-13T17:49:03.209Z,11.50
2018-04-13T17:51:31.314Z,10.53
2018-04-13T17:53:59.386Z,11.53
2018-04-13T17:56:27.458Z,11.70
2018-04-13T17:58:55.563Z,12.47
2018-04-13T18:01:23.643Z,12.83
2018-04-13T18:03:51.695Z,14.13
2018-04-13T18:06:19.761Z,12.97
2018-04-13T18:08:47.809Z,12.83
2018-04-13T18:11:15.908Z,12.47
2018-04-13T18:13:44.022Z,12.20
2018-04-13T18:16:12.110Z,12.30
2018-04-13T18:18:40.181Z,16.03
2018-04-13T18:21:08.297Z,16.13
2018-04-13T18:23:37.206Z,14.93
2018-04-13T18:26:05.341Z,18.00
2018-04-13T18:28:33.397Z,16.93
2018-04-13T18:31:01.503Z,18.73
2018-04-13T18:33:29.574Z,14.90
2018-04-13T18:35:57.655Z,19.97
2018-04-13T18:38:25.710Z,16.87
2018-04-13T18:40:53.794Z,19.73
2018-04-13T18:43:21.886Z,24.53
2018-04-13T18:45:49.953Z,19.47
2018-04-13T18:48:18.034Z,24.20
2018-04-13T18:50:46.887Z,24.53
2018-04-13T18:53:15.006Z,21.77
2018-04-13T18:55:43.082Z,21.27
2018-04-13T18:58:11.327Z,24.87
2018-04-13T19:00:39.277Z,23.07
2018-04-13T19:03:07.436Z,20.20
2018-04-13T19:05:35.560Z,18.40
2018-04-13T19:08:03.648Z,18.40
2018-04-13T19:10:31.730Z,23.57
2018-04-13T19:12:59.818Z,22.03
2018-04-13T19:15:27.874Z,23.80
2018-04-13T19:17:55.941Z,22.70
2018-04-13T19:20:24.102Z,19.37
2018-04-13T19:22:52.161Z,23.47
2018-04-13T19:25:20.205Z,23.43
2018-04-13T19:27:48.294Z,20.63
2018-04-13T19:30:16.361Z,20.90
2018-04-13T19:32:44.433Z,19.00
2018-04-13T19:35:12.530Z,25.23
2018-04-13T19:37:40.601Z,21.63
2018-04-13T19:40:08.694Z,25.53
2018-04-13T19:42:36.802Z,20.90
2018-04-13T19:45:04.883Z,26.70
2018-04-13T19:47:32.951Z,20.60
2018-04-13T19:50:01.022Z,22.40
2018-04-13T19:52:29.112Z,18.80
2018-04-13T19:54:57.184Z,18.77
2018-04-13T19:57:26.365Z,19.70
2018-04-13T19:59:54.454Z,20.23
2018-04-13T20:02:22.506Z,20.40
2018-04-13T20:04:50.641Z,20.13
2018-04-13T20:07:19.622Z,17.77
2018-04-13T20:09:47.687Z,20.00
2018-04-13T20:12:16.577Z,20.43
2018-04-13T20:14:44.661Z,19.07
2018-04-13T20:17:12.734Z,21.07
2018-04-13T20:19:40.831Z,24.83
2018-04-13T20:22:08.898Z,20.87
2018-04-13T20:24:36.983Z,24.90
2018-04-13T20:27:05.121Z,24.77
2018-04-13T20:29:33.174Z,28.17
2018-04-13T20:32:01.226Z,27.93
2018-04-13T20:34:29.390Z,23.47
2018-04-13T20:36:57.482Z,26.80
2018-04-13T20:39:25.590Z,23.30
2018-04-13T20:41:53.754Z,24.63
2018-04-13T20:44:21.805Z,19.17
2018-04-13T20:46:49.930Z,21.67
2018-04-13T20:49:18.019Z,20.87
2018-04-13T20:51:46.162Z,23.37
2018-04-13T20:54:14.214Z,22.73
2018-04-13T20:56:42.322Z,20.27
2018-04-13T20:59:10.406Z,21.67
2018-04-13T21:01:38.458Z,20.77
2018-04-13T21:04:06.529Z,21.00
2018-04-13T21:06:34.581Z,21.03
2018-04-13T21:09:02.649Z,23.13
2018-04-13T21:11:30.756Z,19.83
2018-04-13T21:13:58.823Z,18.37
2018-04-13T21:16:26.901Z,19.93
2018-04-13T21:18:54.998Z,18.03
2018-04-13T21:21:23.074Z,19.80
2018-04-13T21:23:51.162Z,15.60
2018-04-13T21:26:19.283Z,17.73
2018-04-13T21:28:47.376Z,20.70
2018-04-13T21:31:15.460Z,18.07
2018-04-13T21:33:44.318Z,17.23
2018-04-13T21:36:12.394Z,18.83
2018-04-13T21:38:40.475Z,16.43
2018-04-13T21:41:08.541Z,18.30
2018-04-13T21:43:36.618Z,18.27
2018-04-13T21:46:04.682Z,19.30
2018-04-13T21:48:36.681Z,16.83
2018-04-13T21:51:04.770Z,18.60
2018-04-13T21:53:32.878Z,17.93
2018-04-13T21:56:01.002Z,19.07
2018-04-13T21:58:29.057Z,18.43
2018-04-13T22:00:57.123Z,20.77
2018-04-13T22:03:25.206Z,18.73
2018-04-13T22:05:53.274Z,17.53
2018-04-13T22:08:21.331Z,18.57
2018-04-13T22:10:49.422Z,18.80
2018-04-13T22:13:31.237Z,20.77
2018-04-13T22:15:59.311Z,20.67
2018-04-13T22:18:33.201Z,21.57
2018-04-13T22:21:01.307Z,21.80
2018-04-13T22:23:29.379Z,18.20
2018-04-13T22:25:57.846Z,21.67
2018-04-13T22:28:25.918Z,20.20
2018-04-13T22:30:53.986Z,18.87
2018-04-13T22:33:22.095Z,19.63
2018-04-13T22:35:50.181Z,19.43
2018-04-13T22:38:18.267Z,17.77
2018-04-13T22:40:46.333Z,19.70
2018-04-13T22:43:14.389Z,18.70
2018-04-13T22:45:42.465Z,18.63
2018-04-13T22:48:10.554Z,20.53
2018-04-13T22:50:38.630Z,16.83
2018-04-13T22:53:06.720Z,18.27
2018-04-13T22:55:34.773Z,17.20
2018-04-13T22:58:02.925Z,18.07
2018-04-13T23:00:30.989Z,16.27
2018-04-13T23:02:59.051Z,17.10
2018-04-13T23:05:27.145Z,15.93
2018-04-13T23:07:55.222Z,15.77
2018-04-13T23:10:23.302Z,17.17
2018-04-13T23:12:51.357Z,18.43
2018-04-13T23:15:19.483Z,15.93
2018-04-13T23:17:47.510Z,16.53
2018-04-13T23:20:15.598Z,16.47
2018-04-13T23:22:43.665Z,15.87
2018-04-13T23:25:11.734Z,16.80
2018-04-13T23:27:39.838Z,15.53
2018-04-13T23:30:07.911Z,15.83
2018-04-13T23:32:35.981Z,15.53
2018-04-13T23:35:11.701Z,14.27
2018-04-13T23:37:39.778Z,12.83
2018-04-13T23:40:07.863Z,15.63
2018-04-13T23:42:35.949Z,13.53
2018-04-13T23:45:04.095Z,15.23
2018-04-13T23:47:32.925Z,16.20
2018-04-13T23:50:01.781Z,15.70
2018-04-13T23:52:29.825Z,15.37
2018-04-13T23:54:57.942Z,16.50
2018-04-13T23:57:26.014Z,16.03
2018-04-13T23:59:54.094Z,16.03
